North Hampton, Illinois
Current Conditions -  °F | °C
As of 8:35 PM on Sunday 23 Nov 2014 (Local Time) from KC75 Reporting Station
Moderate Rain Moderate Rain  
Wind Chill: 48°   Ceiling: 500
Heat Index: 48°   Visibility: 3mi
Dew Point: 47°   Wind: 0mph
Humidity: 97%   Direction: NA
Pressure: 29.22"   Gusts: NA
Location:  40.915°N, 89.5303°W
Report Text: KC75 240235Z AUTO 00000KT 3SM RA OVC005 09/09 A2922 RMK AO2 P0004 T00900085
Loading
Personal Weather Stations






























Interactive Weather Map New forecast layout! Learn more

10-Day Weather Forecast

Advertisements
Track Severe Weather on mobile